createdAt,value
2018-08-13T00:02:04.573Z,2.03
2018-08-13T00:04:32.745Z,2.10
2018-08-13T00:07:00.910Z,2.33
2018-08-13T00:09:34.404Z,1.73
2018-08-13T00:12:02.609Z,2.40
2018-08-13T00:14:30.563Z,2.93
2018-08-13T00:16:58.498Z,2.40
2018-08-13T00:19:26.649Z,2.43
2018-08-13T00:21:54.594Z,2.80
2018-08-13T00:24:22.749Z,2.43
2018-08-13T00:26:50.945Z,2.80
2018-08-13T00:29:18.904Z,2.20
2018-08-13T00:31:46.864Z,2.90
2018-08-13T00:34:15.489Z,2.73
2018-08-13T00:36:43.893Z,2.40
2018-08-13T00:39:13.116Z,2.60
2018-08-13T00:41:41.297Z,2.47
2018-08-13T00:44:09.221Z,2.30
2018-08-13T00:46:37.155Z,2.40
2018-08-13T00:49:05.850Z,2.80
2018-08-13T00:51:34.740Z,2.73
2018-08-13T00:54:03.042Z,2.40
2018-08-13T00:56:30.997Z,2.57
2018-08-13T00:58:58.963Z,2.43
2018-08-13T01:01:27.169Z,2.37
2018-08-13T01:03:55.349Z,2.50
2018-08-13T01:06:23.581Z,2.30
2018-08-13T01:08:51.747Z,2.70
2018-08-13T01:11:19.930Z,2.87
2018-08-13T01:13:47.892Z,2.57
2018-08-13T01:16:16.093Z,2.50
2018-08-13T01:18:44.269Z,3.23
2018-08-13T01:21:12.425Z,2.90
2018-08-13T01:23:40.792Z,2.97
2018-08-13T01:26:08.972Z,2.73
2018-08-13T01:28:36.949Z,3.03
2018-08-13T01:31:05.128Z,2.80
2018-08-13T01:33:33.278Z,2.50
2018-08-13T01:36:01.211Z,2.67
2018-08-13T01:38:29.368Z,2.37
2018-08-13T01:40:57.647Z,2.50
2018-08-13T01:43:25.805Z,2.67
2018-08-13T01:45:54.189Z,2.80
2018-08-13T01:48:22.360Z,2.70
2018-08-13T01:50:50.513Z,2.63
2018-08-13T01:53:18.434Z,2.80
2018-08-13T01:55:46.581Z,3.00
2018-08-13T01:58:14.763Z,2.90
2018-08-13T02:00:42.916Z,2.80
2018-08-13T02:03:11.092Z,3.30
2018-08-13T02:05:39.497Z,3.10
2018-08-13T02:08:07.729Z,2.83
2018-08-13T02:10:35.912Z,3.40
2018-08-13T02:13:04.124Z,2.50
2018-08-13T02:15:32.362Z,3.13
2018-08-13T02:18:00.512Z,3.03
2018-08-13T02:20:28.476Z,2.70
2018-08-13T02:22:56.661Z,3.10
2018-08-13T02:25:24.815Z,3.00
2018-08-13T02:27:52.745Z,2.67
2018-08-13T02:30:20.935Z,2.77
2018-08-13T02:32:49.336Z,2.73
2018-08-13T02:35:17.538Z,2.60
2018-08-13T02:37:45.468Z,2.53
2018-08-13T02:40:13.667Z,2.93
2018-08-13T02:42:41.823Z,2.70
2018-08-13T02:45:10.975Z,2.47
2018-08-13T02:47:39.140Z,2.63
2018-08-13T02:50:09.645Z,3.10
2018-08-13T02:52:37.800Z,2.87
2018-08-13T02:55:06.048Z,2.90
2018-08-13T02:57:34.189Z,2.87
2018-08-13T03:00:02.331Z,3.03
2018-08-13T03:02:30.277Z,3.10
2018-08-13T03:04:59.174Z,3.13
2018-08-13T03:07:27.311Z,3.00
2018-08-13T03:09:55.240Z,2.87
2018-08-13T03:12:23.438Z,3.17
2018-08-13T03:14:51.689Z,2.90
2018-08-13T03:17:26.797Z,3.33
2018-08-13T03:19:54.964Z,3.00
2018-08-13T03:22:22.888Z,3.20
2018-08-13T03:24:51.040Z,2.90
2018-08-13T03:27:19.202Z,3.40
2018-08-13T03:29:47.416Z,2.83
2018-08-13T03:32:15.365Z,3.80
2018-08-13T03:34:43.493Z,3.13
2018-08-13T03:37:11.646Z,2.80
2018-08-13T03:39:40.069Z,3.50
2018-08-13T03:42:08.904Z,3.23
2018-08-13T03:44:37.052Z,3.33
2018-08-13T03:47:05.500Z,3.47
2018-08-13T03:49:33.659Z,3.20
2018-08-13T03:52:01.572Z,3.10
2018-08-13T03:54:29.480Z,3.30
2018-08-13T03:56:57.406Z,3.40
2018-08-13T03:59:25.388Z,3.17
2018-08-13T04:01:53.580Z,2.70
2018-08-13T04:04:21.736Z,3.40
2018-08-13T04:06:49.873Z,2.83
2018-08-13T04:09:18.048Z,3.30
2018-08-13T04:11:45.960Z,3.50
2018-08-13T04:14:13.875Z,3.50
2018-08-13T04:16:46.249Z,3.20
2018-08-13T04:19:14.168Z,3.30
2018-08-13T04:21:42.312Z,3.37
2018-08-13T04:24:10.460Z,3.20
2018-08-13T04:26:38.611Z,3.40
2018-08-13T04:29:06.761Z,3.00
2018-08-13T04:31:34.905Z,3.53
2018-08-13T04:34:03.074Z,3.30
2018-08-13T04:36:30.977Z,3.03
2018-08-13T04:38:59.125Z,3.00
2018-08-13T04:41:27.293Z,3.13
2018-08-13T04:43:55.392Z,3.83
2018-08-13T04:46:23.312Z,3.50
2018-08-13T04:48:51.489Z,2.80
2018-08-13T04:51:19.624Z,3.03
2018-08-13T04:53:47.749Z,3.60
2018-08-13T04:56:15.905Z,3.27
2018-08-13T04:58:43.811Z,3.30
2018-08-13T05:01:11.732Z,3.63
2018-08-13T05:03:39.885Z,3.03
2018-08-13T05:06:08.396Z,3.17
2018-08-13T05:08:36.533Z,3.33
2018-08-13T05:11:04.453Z,3.50
2018-08-13T05:13:32.589Z,3.23
2018-08-13T05:16:00.749Z,3.27
2018-08-13T05:18:28.647Z,3.30
2018-08-13T05:20:56.812Z,3.53
2018-08-13T05:23:24.956Z,3.13
2018-08-13T05:25:53.098Z,3.13
2018-08-13T05:28:21.255Z,3.90
2018-08-13T05:30:49.424Z,3.50
2018-08-13T05:33:17.593Z,3.30
2018-08-13T05:35:45.738Z,3.53
2018-08-13T05:38:14.246Z,3.40
2018-08-13T05:40:42.397Z,3.50
2018-08-13T05:43:10.300Z,3.57
2018-08-13T05:45:38.449Z,3.60
2018-08-13T05:48:06.600Z,3.80
2018-08-13T05:50:36.570Z,3.10
2018-08-13T05:53:04.581Z,2.80
2018-08-13T05:55:32.420Z,3.80
2018-08-13T05:58:00.549Z,3.70
2018-08-13T06:00:28.694Z,3.20
2018-08-13T06:02:56.615Z,3.00
2018-08-13T06:05:24.745Z,3.40
2018-08-13T06:07:52.881Z,3.07
2018-08-13T06:10:21.033Z,3.20
2018-08-13T06:12:49.177Z,2.90
2018-08-13T06:15:17.337Z,2.90
2018-08-13T06:17:45.485Z,3.00
2018-08-13T06:20:13.673Z,3.00
2018-08-13T06:22:42.823Z,2.77
2018-08-13T06:25:11.681Z,3.20
2018-08-13T06:27:39.612Z,2.90
2018-08-13T06:30:08.732Z,3.50
2018-08-13T06:32:36.881Z,3.20
2018-08-13T06:35:04.800Z,3.40
2018-08-13T06:37:32.970Z,3.30
2018-08-13T06:40:01.112Z,3.23
2018-08-13T06:42:29.028Z,2.87
2018-08-13T06:44:56.948Z,3.40
2018-08-13T06:47:24.903Z,2.83
2018-08-13T06:49:53.053Z,3.07
2018-08-13T06:52:20.989Z,3.00
2018-08-13T06:54:48.952Z,3.00
2018-08-13T06:57:17.113Z,2.90
2018-08-13T06:59:45.253Z,3.10
2018-08-13T07:02:13.408Z,2.90
2018-08-13T07:04:41.320Z,2.30
2018-08-13T07:07:09.235Z,2.60
2018-08-13T07:09:37.393Z,3.20
2018-08-13T07:12:05.541Z,3.03
2018-08-13T07:14:34.786Z,2.80
2018-08-13T07:17:02.831Z,2.97
2018-08-13T07:19:30.779Z,2.53
2018-08-13T07:21:58.968Z,2.70
2018-08-13T07:24:26.875Z,2.50
2018-08-13T07:26:55.045Z,3.30
2018-08-13T07:29:22.963Z,2.90
2018-08-13T07:31:51.115Z,3.00
2018-08-13T07:34:19.376Z,2.67
2018-08-13T07:36:47.574Z,3.20
2018-08-13T07:39:15.757Z,2.83
2018-08-13T07:41:43.921Z,2.97
2018-08-13T07:44:12.063Z,3.50
2018-08-13T07:46:40.195Z,3.30
2018-08-13T07:49:08.366Z,2.70
2018-08-13T07:51:36.573Z,2.80
2018-08-13T07:54:04.939Z,2.80
2018-08-13T07:56:32.901Z,2.30
2018-08-13T07:59:01.045Z,2.50
2018-08-13T08:01:29.243Z,2.67
2018-08-13T08:03:57.397Z,2.70
2018-08-13T08:06:25.554Z,2.80
2018-08-13T08:08:53.783Z,2.70
2018-08-13T08:11:21.918Z,2.70
2018-08-13T08:13:49.831Z,2.30
2018-08-13T08:16:17.977Z,2.67
2018-08-13T08:18:46.139Z,2.27
2018-08-13T08:21:14.334Z,2.33
2018-08-13T08:23:42.462Z,2.30
2018-08-13T08:26:10.402Z,3.00
2018-08-13T08:28:38.333Z,2.70
2018-08-13T08:31:06.523Z,2.50
2018-08-13T08:33:34.675Z,2.20
2018-08-13T08:36:02.635Z,2.77
2018-08-13T08:38:30.806Z,2.93
2018-08-13T08:40:59.057Z,2.87
2018-08-13T08:43:26.919Z,2.40
2018-08-13T08:45:55.172Z,2.67
2018-08-13T08:48:23.283Z,2.70
2018-08-13T08:50:51.445Z,1.97
2018-08-13T08:53:19.617Z,2.10
2018-08-13T08:55:47.788Z,1.90
2018-08-13T08:58:15.946Z,2.07
2018-08-13T09:00:43.876Z,1.60
2018-08-13T09:03:12.030Z,2.17
2018-08-13T09:05:40.181Z,1.87
2018-08-13T09:08:08.351Z,2.57
2018-08-13T09:10:36.516Z,1.70
2018-08-13T09:13:04.435Z,2.17
2018-08-13T09:15:32.357Z,2.20
2018-08-13T09:18:05.856Z,1.60
2018-08-13T09:20:39.352Z,1.90
2018-08-13T09:23:12.856Z,2.60
2018-08-13T09:25:52.294Z,1.87
2018-08-13T09:28:31.899Z,1.80
2018-08-13T09:31:11.997Z,1.90
2018-08-13T09:33:51.642Z,2.20
2018-08-13T09:36:19.803Z,1.77
2018-08-13T09:38:47.965Z,2.00
2018-08-13T09:41:16.131Z,1.70
2018-08-13T09:43:44.297Z,2.10
2018-08-13T09:46:12.911Z,1.90
2018-08-13T09:48:40.808Z,1.70
2018-08-13T09:51:10.314Z,2.43
2018-08-13T09:53:39.675Z,2.03
2018-08-13T09:56:07.708Z,2.30
2018-08-13T09:58:36.097Z,2.00
2018-08-13T10:01:10.625Z,2.27
2018-08-13T10:03:39.342Z,2.37
2018-08-13T10:06:07.807Z,2.10
2018-08-13T10:08:35.868Z,2.20
2018-08-13T10:11:04.335Z,1.83
2018-08-13T10:13:32.436Z,2.00
2018-08-13T10:16:00.897Z,2.03
2018-08-13T10:18:29.282Z,1.90
2018-08-13T10:20:57.732Z,1.63
2018-08-13T10:23:25.969Z,2.10
2018-08-13T10:25:54.464Z,1.63
2018-08-13T10:28:22.806Z,1.80
2018-08-13T10:30:51.191Z,1.50
2018-08-13T10:33:19.769Z,2.30
2018-08-13T10:35:48.162Z,1.90
2018-08-13T10:38:16.231Z,2.40
2018-08-13T10:40:44.360Z,1.50
2018-08-13T10:43:12.704Z,1.87
2018-08-13T10:45:41.130Z,1.80
2018-08-13T10:48:09.128Z,1.77
2018-08-13T10:50:37.566Z,2.10
2018-08-13T10:53:05.868Z,1.53
2018-08-13T10:55:34.253Z,2.13
2018-08-13T10:58:02.576Z,2.13
2018-08-13T11:00:30.780Z,2.27
2018-08-13T11:02:58.919Z,2.27
2018-08-13T11:05:27.289Z,2.27
2018-08-13T11:07:55.358Z,2.20
2018-08-13T11:10:23.485Z,2.37
2018-08-13T11:12:51.357Z,2.40
2018-08-13T11:15:20.249Z,2.37
2018-08-13T11:17:48.734Z,2.00
2018-08-13T11:20:17.217Z,2.40
2018-08-13T11:22:45.610Z,2.10
2018-08-13T11:25:14.965Z,2.07
2018-08-13T11:27:43.530Z,2.50
2018-08-13T11:30:13.417Z,1.90
2018-08-13T11:32:41.750Z,2.43
2018-08-13T11:35:10.281Z,2.43
2018-08-13T11:37:38.411Z,2.40
2018-08-13T11:40:13.774Z,2.93
2018-08-13T11:42:42.174Z,2.43
2018-08-13T11:45:10.654Z,2.33
2018-08-13T11:47:39.267Z,2.83
2018-08-13T11:50:13.345Z,2.83
2018-08-13T11:52:42.001Z,2.60
2018-08-13T11:55:10.397Z,2.40
2018-08-13T11:57:38.786Z,2.67
2018-08-13T12:00:09.065Z,2.40
2018-08-13T12:02:37.473Z,2.57
2018-08-13T12:05:08.312Z,2.83
2018-08-13T12:07:36.398Z,2.90
2018-08-13T12:10:05.762Z,2.50
2018-08-13T12:12:33.891Z,3.00
2018-08-13T12:15:02.696Z,3.07
2018-08-13T12:17:31.445Z,2.60
2018-08-13T12:19:59.920Z,2.57
2018-08-13T12:22:28.349Z,3.00
2018-08-13T12:24:57.533Z,2.80
2018-08-13T12:27:25.564Z,2.73
2018-08-13T12:29:53.874Z,2.40
2018-08-13T12:32:22.289Z,3.00
2018-08-13T12:34:50.319Z,3.00
2018-08-13T12:37:18.556Z,2.60
2018-08-13T12:39:46.760Z,2.73
2018-08-13T12:42:14.939Z,2.93
2018-08-13T12:44:42.868Z,3.20
2018-08-13T12:47:11.029Z,3.10
2018-08-13T12:49:38.996Z,2.90
2018-08-13T12:52:07.401Z,3.07
2018-08-13T12:54:35.957Z,2.80
2018-08-13T12:57:04.174Z,3.60
2018-08-13T12:59:32.059Z,3.63
2018-08-13T13:02:00.265Z,2.80
2018-08-13T13:04:28.420Z,3.13
2018-08-13T13:06:56.336Z,3.33
2018-08-13T13:09:24.573Z,3.03
2018-08-13T13:11:52.736Z,3.00
2018-08-13T13:14:21.063Z,3.40
2018-08-13T13:16:49.255Z,3.23
2018-08-13T13:19:17.421Z,3.17
2018-08-13T13:21:45.583Z,3.37
2018-08-13T13:24:13.753Z,3.67
2018-08-13T13:26:41.922Z,3.00
2018-08-13T13:29:09.885Z,3.40
2018-08-13T13:31:38.064Z,3.10
2018-08-13T13:34:06.269Z,2.80
2018-08-13T13:36:34.194Z,2.93
2018-08-13T13:39:02.385Z,3.43
2018-08-13T13:41:30.307Z,2.97
2018-08-13T13:43:58.553Z,2.67
2018-08-13T13:46:26.736Z,2.77
2018-08-13T13:48:54.881Z,2.90
2018-08-13T13:51:23.047Z,2.80
2018-08-13T13:53:51.073Z,2.97
2018-08-13T13:56:19.229Z,2.60
2018-08-13T13:58:47.150Z,3.30
2018-08-13T14:01:15.348Z,2.30
2018-08-13T14:03:43.761Z,2.57
2018-08-13T14:06:12.288Z,2.40
2018-08-13T14:08:40.739Z,2.57
2018-08-13T14:11:09.131Z,2.60
2018-08-13T14:13:37.705Z,2.73
2018-08-13T14:16:05.804Z,2.80
2018-08-13T14:18:34.059Z,2.33
2018-08-13T14:21:01.996Z,2.53
2018-08-13T14:23:30.939Z,2.13
2018-08-13T14:25:59.257Z,1.90
2018-08-13T14:28:27.666Z,2.40
2018-08-13T14:30:56.096Z,2.50
2018-08-13T14:33:24.517Z,2.50
2018-08-13T14:35:52.428Z,2.43
2018-08-13T14:38:20.368Z,2.40
2018-08-13T14:40:48.342Z,2.80
2018-08-13T14:43:16.565Z,2.17
2018-08-13T14:45:45.075Z,2.23
2018-08-13T14:48:13.243Z,2.17
2018-08-13T14:50:41.693Z,2.40
2018-08-13T14:53:09.997Z,2.40
2018-08-13T14:55:38.178Z,2.63
2018-08-13T14:58:06.381Z,2.27
2018-08-13T15:00:36.084Z,2.10
2018-08-13T15:03:04.838Z,2.47
2018-08-13T15:05:33.061Z,1.93
2018-08-13T15:08:01.278Z,2.83
2018-08-13T15:10:29.573Z,3.53
2018-08-13T15:12:57.667Z,3.67
2018-08-13T15:15:25.785Z,3.87
2018-08-13T15:17:54.112Z,3.93
2018-08-13T15:20:25.366Z,4.57
2018-08-13T15:22:53.563Z,3.93
2018-08-13T15:25:21.504Z,4.73
2018-08-13T15:27:49.773Z,4.00
2018-08-13T15:30:18.601Z,3.93
2018-08-13T15:32:47.547Z,4.00
2018-08-13T15:35:15.709Z,4.57
2018-08-13T15:37:44.536Z,3.80
2018-08-13T15:40:12.700Z,3.77
2018-08-13T15:42:41.009Z,3.80
2018-08-13T15:45:11.781Z,3.73
2018-08-13T15:47:40.046Z,4.30
2018-08-13T15:50:09.738Z,4.07
2018-08-13T15:52:38.260Z,4.10
2018-08-13T15:55:06.462Z,4.60
2018-08-13T15:57:34.941Z,4.20
2018-08-13T16:00:03.484Z,4.07
2018-08-13T16:02:31.965Z,3.83
2018-08-13T16:05:00.489Z,4.77
2018-08-13T16:07:29.005Z,4.10
2018-08-13T16:09:57.493Z,4.60
2018-08-13T16:12:26.145Z,4.10
2018-08-13T16:14:54.613Z,3.90
2018-08-13T16:17:23.147Z,4.73
2018-08-13T16:19:51.646Z,4.30
2018-08-13T16:22:20.494Z,4.40
2018-08-13T16:24:49.001Z,4.80
2018-08-13T16:27:17.553Z,4.00
2018-08-13T16:29:45.717Z,4.20
2018-08-13T16:32:14.145Z,4.27
2018-08-13T16:34:42.721Z,4.33
2018-08-13T16:37:10.869Z,4.90
2018-08-13T16:39:39.350Z,4.60
2018-08-13T16:42:07.867Z,4.50
2018-08-13T16:44:36.026Z,5.03
2018-08-13T16:47:04.494Z,4.30
2018-08-13T16:49:32.995Z,4.60
2018-08-13T16:52:01.451Z,4.23
2018-08-13T16:54:29.521Z,4.63
2018-08-13T16:56:57.981Z,4.93
2018-08-13T16:59:26.399Z,4.90
2018-08-13T17:01:54.849Z,4.40
2018-08-13T17:04:23.290Z,5.30
2018-08-13T17:06:51.896Z,4.60
2018-08-13T17:09:20.418Z,4.60
2018-08-13T17:11:48.885Z,3.63
2018-08-13T17:14:17.461Z,4.33
2018-08-13T17:16:46.672Z,4.23
2018-08-13T17:19:14.867Z,3.80
2018-08-13T17:21:43.407Z,4.00
2018-08-13T17:24:13.486Z,3.93
2018-08-13T17:26:42.079Z,3.23
2018-08-13T17:29:10.627Z,3.27
2018-08-13T17:31:39.520Z,2.90
2018-08-13T17:34:09.225Z,2.03
2018-08-13T17:36:38.050Z,2.10
2018-08-13T17:39:09.802Z,2.10
2018-08-13T17:41:38.619Z,1.90
2018-08-13T17:44:06.785Z,2.30
2018-08-13T17:46:35.666Z,2.17
2018-08-13T17:49:04.255Z,2.00
2018-08-13T17:51:32.798Z,1.83
2018-08-13T17:54:01.370Z,1.90
2018-08-13T17:56:30.053Z,1.80
2018-08-13T17:58:58.673Z,1.90
2018-08-13T18:01:27.061Z,1.80
2018-08-13T18:03:55.730Z,1.80
2018-08-13T18:06:24.399Z,2.30
2018-08-13T18:08:52.713Z,2.37
2018-08-13T18:11:21.345Z,1.80
2018-08-13T18:13:49.879Z,1.80
2018-08-13T18:16:18.009Z,1.53
2018-08-13T18:18:46.610Z,1.80
2018-08-13T18:21:14.801Z,2.17
2018-08-13T18:23:43.365Z,2.00
2018-08-13T18:26:11.524Z,1.80
2018-08-13T18:28:40.038Z,2.23
2018-08-13T18:31:08.950Z,1.97
2018-08-13T18:33:37.552Z,2.43
2018-08-13T18:36:06.894Z,2.07
2018-08-13T18:38:35.559Z,2.17
2018-08-13T18:41:03.792Z,2.30
2018-08-13T18:43:32.009Z,2.10
2018-08-13T18:46:00.506Z,1.90
2018-08-13T18:48:28.720Z,1.80
2018-08-13T18:50:56.958Z,1.50
2018-08-13T18:53:25.435Z,2.30
2018-08-13T18:55:53.634Z,2.00
2018-08-13T18:58:22.173Z,1.70
2018-08-13T19:00:53.906Z,2.00
2018-08-13T19:03:22.687Z,1.70
2018-08-13T19:05:51.261Z,2.33
2018-08-13T19:08:20.004Z,1.93
2018-08-13T19:10:48.257Z,2.13
2018-08-13T19:13:16.799Z,1.97
2018-08-13T19:15:45.421Z,1.83
2018-08-13T19:18:13.565Z,1.80
2018-08-13T19:20:41.746Z,1.53
2018-08-13T19:23:09.926Z,2.10
2018-08-13T19:25:38.478Z,1.87
2018-08-13T19:28:07.247Z,1.67
2018-08-13T19:30:35.742Z,2.07
2018-08-13T19:33:03.945Z,2.23
2018-08-13T19:35:32.536Z,2.10
2018-08-13T19:38:01.082Z,1.77
2018-08-13T19:40:29.573Z,2.20
2018-08-13T19:42:58.028Z,2.20
2018-08-13T19:45:26.579Z,2.23
2018-08-13T19:47:55.117Z,2.13
2018-08-13T19:50:23.620Z,1.87
2018-08-13T19:52:52.174Z,2.20
2018-08-13T19:55:21.042Z,2.00
2018-08-13T19:57:49.186Z,1.90
2018-08-13T20:00:19.267Z,2.40
2018-08-13T20:02:47.965Z,1.83
2018-08-13T20:05:16.556Z,1.67
2018-08-13T20:07:45.097Z,2.40
2018-08-13T20:10:14.300Z,1.80
2018-08-13T20:12:43.727Z,2.10
2018-08-13T20:15:11.897Z,2.23
2018-08-13T20:17:40.622Z,2.50
2018-08-13T20:20:16.906Z,2.40
2018-08-13T20:22:46.082Z,2.00
2018-08-13T20:25:15.973Z,1.80
2018-08-13T20:27:44.239Z,2.37
2018-08-13T20:30:13.897Z,2.37
2018-08-13T20:32:42.475Z,2.53
2018-08-13T20:35:10.900Z,2.20
2018-08-13T20:37:39.227Z,2.07
2018-08-13T20:40:08.418Z,1.93
2018-08-13T20:42:36.633Z,2.10
2018-08-13T20:45:05.823Z,2.20
2018-08-13T20:47:33.976Z,2.47
2018-08-13T20:50:02.651Z,2.50
2018-08-13T20:52:30.708Z,2.00
2018-08-13T20:54:58.846Z,2.13
2018-08-13T20:57:27.328Z,2.20
2018-08-13T20:59:55.962Z,2.30
2018-08-13T21:02:24.492Z,2.27
2018-08-13T21:04:53.059Z,2.10
2018-08-13T21:07:21.466Z,2.53
2018-08-13T21:09:49.978Z,2.27
2018-08-13T21:12:18.413Z,2.67
2018-08-13T21:14:46.793Z,2.63
2018-08-13T21:17:15.282Z,2.67
2018-08-13T21:19:43.731Z,2.27
2018-08-13T21:22:12.237Z,2.50
2018-08-13T21:24:41.172Z,2.17
2018-08-13T21:27:09.371Z,2.70
2018-08-13T21:29:37.845Z,2.50
2018-08-13T21:32:07.255Z,2.30
2018-08-13T21:34:35.446Z,2.07
2018-08-13T21:37:03.861Z,2.50
2018-08-13T21:39:32.026Z,2.40
2018-08-13T21:42:00.148Z,2.47
2018-08-13T21:44:28.690Z,2.50
2018-08-13T21:46:56.885Z,2.17
2018-08-13T21:49:24.901Z,2.10
2018-08-13T21:51:53.269Z,2.47
2018-08-13T21:54:21.590Z,2.17
2018-08-13T21:56:50.632Z,2.40
2018-08-13T21:59:18.911Z,2.70
2018-08-13T22:01:47.950Z,2.40
2018-08-13T22:04:17.622Z,2.90
2018-08-13T22:06:45.944Z,2.70
2018-08-13T22:09:14.222Z,2.23
2018-08-13T22:11:42.737Z,2.70
2018-08-13T22:14:11.353Z,2.40
2018-08-13T22:16:45.561Z,2.53
2018-08-13T22:19:13.957Z,2.63
2018-08-13T22:21:42.417Z,2.30
2018-08-13T22:24:15.874Z,2.50
2018-08-13T22:26:44.118Z,2.37
2018-08-13T22:29:12.308Z,2.33
2018-08-13T22:31:40.873Z,2.43
2018-08-13T22:34:09.588Z,1.90
2018-08-13T22:36:37.836Z,2.67
2018-08-13T22:39:07.205Z,2.70
2018-08-13T22:41:35.603Z,2.80
2018-08-13T22:44:03.812Z,2.50
2018-08-13T22:46:31.991Z,2.33
2018-08-13T22:49:00.149Z,2.70
2018-08-13T22:51:28.707Z,2.40
2018-08-13T22:53:56.804Z,2.43
2018-08-13T22:56:24.816Z,2.43
2018-08-13T22:58:53.281Z,2.70
2018-08-13T23:01:21.641Z,3.03
2018-08-13T23:03:49.721Z,2.43
2018-08-13T23:06:25.871Z,2.50
2018-08-13T23:08:54.438Z,2.60
2018-08-13T23:11:22.925Z,2.37
2018-08-13T23:13:51.113Z,2.30
2018-08-13T23:16:19.061Z,2.97
2018-08-13T23:18:47.347Z,2.10
2018-08-13T23:21:15.889Z,2.40
2018-08-13T23:23:44.397Z,2.30
2018-08-13T23:26:12.821Z,2.10
2018-08-13T23:28:41.218Z,2.53
2018-08-13T23:31:09.159Z,2.80
2018-08-13T23:33:38.115Z,2.67
2018-08-13T23:36:06.532Z,2.90
2018-08-13T23:38:34.740Z,2.77
2018-08-13T23:41:02.912Z,2.20
2018-08-13T23:43:31.089Z,2.13
2018-08-13T23:45:59.246Z,2.33
2018-08-13T23:48:27.439Z,2.20
2018-08-13T23:50:55.365Z,2.20
2018-08-13T23:53:23.560Z,2.30
2018-08-13T23:55:51.482Z,2.40
2018-08-13T23:58:19.661Z,2.30
